Time;durP1;ratioP1;P1;durP2;ratioP2;P2;SDS_P1;SDS_P2;PMS_P1;PMS_P2;Temp;Humidity;BMP_temperature;BMP_pressure;BME280_temperature;BME280_humidity;BME280_pressure;Samples;Min_cycle;Max_cycle;Signal;HPM_P1;HPM_P2
2022/11/24 00:01:59;;;;;;;29.50;14.57;;;9.20;99.90;;;;;;5126900;27;20046;-70
2022/11/24 00:04:25;;;;;;;30.45;13.55;;;9.40;99.90;;;;;;5140035;27;20031;-70
2022/11/24 00:06:59;;;;;;;24.10;13.52;;;9.30;99.90;;;;;;5141197;27;20363;-69
2022/11/24 00:09:25;;;;;;;22.25;12.85;;;9.20;99.90;;;;;;5141720;27;20031;-70
2022/11/24 00:11:51;;;;;;;32.65;14.15;;;9.20;99.90;;;;;;5141685;27;20091;-70
2022/11/24 00:14:16;;;;;;;29.63;14.38;;;9.20;99.90;;;;;;5141500;27;20053;-70
2022/11/24 00:16:42;;;;;;;25.88;13.57;;;9.10;99.90;;;;;;5123314;27;20065;-70
2022/11/24 00:19:08;;;;;;;30.33;13.10;;;9.20;99.90;;;;;;5141414;27;20050;-70
2022/11/24 00:21:35;;;;;;;28.50;12.07;;;9.00;99.90;;;;;;5141566;27;20047;-69
2022/11/24 00:24:01;;;;;;;25.33;11.77;;;9.00;99.90;;;;;;5141463;27;20031;-69
2022/11/24 00:26:30;;;;;;;33.20;13.00;;;9.00;99.90;;;;;;5141260;27;20062;-69
2022/11/24 00:28:58;;;;;;;32.25;12.10;;;9.10;99.90;;;;;;5123288;27;20515;-70
2022/11/24 00:31:33;;;;;;;24.63;10.90;;;9.20;99.90;;;;;;5141050;27;20368;-70
2022/11/24 00:34:01;;;;;;;28.90;12.50;;;9.10;99.90;;;;;;5141345;27;20038;-69
2022/11/24 00:36:28;;;;;;;27.75;11.20;;;9.00;99.90;;;;;;5140442;27;20046;-69
2022/11/24 00:38:56;;;;;;;32.33;10.93;;;9.00;99.90;;;;;;5141368;27;20046;-70
2022/11/24 00:41:23;;;;;;;34.20;12.48;;;9.00;99.90;;;;;;5140833;27;20035;-69
2022/11/24 00:43:49;;;;;;;30.58;11.98;;;9.00;99.90;;;;;;5141079;27;20039;-69
2022/11/24 00:46:15;;;;;;;22.80;11.30;;;9.20;99.90;;;;;;5141074;27;20319;-70
2022/11/24 00:48:40;;;;;;;24.52;10.98;;;9.10;99.90;;;;;;5141145;27;20031;-74
2022/11/24 00:51:09;;;;;;;26.48;10.50;;;9.20;99.90;;;;;;5140774;27;20042;-70
2022/11/24 00:53:35;;;;;;;25.63;10.88;;;9.10;99.90;;;;;;5140961;27;20039;-69
2022/11/24 00:56:04;;;;;;;19.80;9.85;;;9.10;99.90;;;;;;5141002;27;20035;-69
2022/11/24 00:58:30;;;;;;;30.85;9.75;;;9.00;99.90;;;;;;5140538;27;20038;-70
2022/11/24 01:01:03;;;;;;;25.10;9.85;;;8.90;99.90;;;;;;5122521;27;20039;-69
2022/11/24 01:03:29;;;;;;;25.83;10.02;;;8.90;99.90;;;;;;5140498;27;20468;-69
2022/11/24 01:05:55;;;;;;;33.25;10.63;;;8.80;99.90;;;;;;5140112;27;20042;-69
2022/11/24 01:08:20;;;;;;;23.85;9.95;;;8.80;99.90;;;;;;5140749;27;20039;-69
2022/11/24 01:10:46;;;;;;;29.15;11.07;;;8.70;99.90;;;;;;5122570;27;20106;-70
2022/11/24 01:13:12;;;;;;;23.00;10.40;;;8.80;99.90;;;;;;5140133;27;20035;-70
2022/11/24 01:15:38;;;;;;;28.42;9.70;;;8.90;99.90;;;;;;5140648;27;20031;-69
2022/11/24 01:18:04;;;;;;;31.63;10.32;;;8.90;99.90;;;;;;5122300;27;20035;-69
2022/11/24 01:20:31;;;;;;;24.55;9.45;;;8.80;99.90;;;;;;5122010;27;20457;-69
2022/11/24 01:22:57;;;;;;;23.08;8.63;;;8.80;99.90;;;;;;5140211;27;20039;-69
2022/11/24 01:25:22;;;;;;;27.48;9.40;;;8.80;99.90;;;;;;5139882;27;20320;-70
2022/11/24 01:27:48;;;;;;;22.15;8.55;;;8.90;99.90;;;;;;5121926;27;20103;-69
2022/11/24 01:30:14;;;;;;;24.92;8.38;;;9.00;99.90;;;;;;5140122;27;20039;-69
2022/11/24 01:32:39;;;;;;;26.90;8.95;;;9.00;99.90;;;;;;5122262;27;20043;-69
2022/11/24 01:35:06;;;;;;;27.83;8.40;;;9.10;99.90;;;;;;5139624;27;20423;-69
2022/11/24 01:37:31;;;;;;;24.23;8.23;;;9.10;99.90;;;;;;5140011;27;20040;-69
2022/11/24 01:39:57;;;;;;;25.52;8.40;;;9.10;99.90;;;;;;5139710;27;20103;-72
2022/11/24 01:42:23;;;;;;;36.53;8.82;;;9.10;99.90;;;;;;5139678;27;20122;-69
2022/11/24 01:45:41;;;;;;;24.17;7.63;;;9.00;99.90;;;;;;5140002;27;20038;-69
2022/11/24 01:48:23;;;;;;;25.13;8.95;;;9.10;99.90;;;;;;5105005;27;20074;-70
2022/11/24 01:51:03;;;;;;;22.80;7.53;;;9.10;99.90;;;;;;5121767;27;20082;-70
2022/11/24 01:53:29;;;;;;;30.00;8.23;;;9.10;99.90;;;;;;5140120;27;20035;-69
2022/11/24 01:55:55;;;;;;;27.42;7.50;;;9.20;99.90;;;;;;5139680;27;20035;-70
2022/11/24 01:58:25;;;;;;;29.00;8.35;;;9.20;99.90;;;;;;5121359;27;20046;-70
2022/11/24 02:00:52;;;;;;;22.85;6.90;;;9.30;99.90;;;;;;5139687;27;20087;-70
2022/11/24 02:03:23;;;;;;;30.95;8.35;;;9.30;99.90;;;;;;5139565;27;20111;-69
2022/11/24 02:05:54;;;;;;;38.95;8.93;;;9.40;99.90;;;;;;5138856;27;20034;-70
2022/11/24 02:09:12;;;;;;;31.50;7.70;;;9.50;99.90;;;;;;5139576;27;20039;-69
2022/11/24 02:11:39;;;;;;;;;;;9.40;99.90;;;;;;5114129;27;20043;-70
2022/11/24 02:14:08;;;;;;;31.92;7.15;;;9.40;99.90;;;;;;5139147;27;19919;-69
2022/11/24 02:16:35;;;;;;;30.33;6.57;;;9.40;99.90;;;;;;5139289;27;20046;-70
2022/11/24 02:19:20;;;;;;;27.45;6.85;;;9.40;99.90;;;;;;5139400;27;20331;-70
2022/11/24 02:21:46;;;;;;;28.58;7.40;;;9.30;99.90;;;;;;5139108;27;20039;-71
2022/11/24 02:24:22;;;;;;;28.92;7.00;;;9.50;99.90;;;;;;5138572;27;20475;-70
2022/11/24 02:26:50;;;;;;;32.88;7.93;;;9.50;99.90;;;;;;5138765;27;20432;-69
2022/11/24 02:29:18;;;;;;;31.98;7.13;;;9.40;99.90;;;;;;5138851;27;20035;-70
2022/11/24 02:31:51;;;;;;;29.50;6.55;;;9.40;99.90;;;;;;5120610;27;20043;-70
2022/11/24 02:34:17;;;;;;;30.35;7.30;;;9.40;99.90;;;;;;5139114;27;20380;-70
2022/11/24 02:36:42;;;;;;;31.02;7.05;;;9.40;99.90;;;;;;5138604;27;20043;-70
2022/11/24 02:39:12;;;;;;;23.10;6.40;;;9.40;99.90;;;;;;5138963;27;20412;-69
2022/11/24 02:41:50;;;;;;;33.00;6.30;;;9.40;99.90;;;;;;5138445;27;20439;-69
2022/11/24 02:44:19;;;;;;;25.38;6.00;;;9.30;99.90;;;;;;5138775;27;20041;-69
2022/11/24 02:46:44;;;;;;;31.10;7.25;;;9.30;99.90;;;;;;5138496;27;20122;-70
2022/11/24 02:49:10;;;;;;;25.27;7.45;;;9.40;99.90;;;;;;5120344;27;20074;-69
2022/11/24 02:51:36;;;;;;;27.90;6.15;;;9.40;99.90;;;;;;5138438;27;20075;-69
2022/11/24 02:54:01;;;;;;;23.05;5.80;;;9.50;99.90;;;;;;5138311;27;20043;-69
2022/11/24 02:56:27;;;;;;;30.42;6.63;;;9.50;99.90;;;;;;5138489;27;20070;-69
2022/11/24 02:58:52;;;;;;;26.48;6.10;;;9.50;99.90;;;;;;5138552;27;20412;-69
2022/11/24 03:01:18;;;;;;;23.70;5.75;;;9.30;99.90;;;;;;5138204;27;20425;-69
2022/11/24 03:03:44;;;;;;;25.63;5.53;;;9.30;99.90;;;;;;5138453;27;20039;-70
2022/11/24 03:06:10;;;;;;;23.67;6.40;;;9.40;99.90;;;;;;5119587;27;20043;-70
2022/11/24 03:08:35;;;;;;;25.10;6.50;;;9.50;99.90;;;;;;5138328;27;20071;-70
2022/11/24 03:11:02;;;;;;;29.67;6.05;;;9.60;99.90;;;;;;5138014;27;20045;-69
2022/11/24 03:13:27;;;;;;;26.60;5.45;;;9.60;99.90;;;;;;5138129;27;20423;-69
2022/11/24 03:15:53;;;;;;;20.85;5.68;;;9.50;99.90;;;;;;5137897;27;20120;-69
2022/11/24 03:18:19;;;;;;;19.65;5.78;;;9.50;99.90;;;;;;5137800;27;20070;-70
2022/11/24 03:20:44;;;;;;;22.02;5.88;;;9.40;99.90;;;;;;5137962;27;20076;-69
2022/11/24 03:23:10;;;;;;;21.35;5.70;;;9.40;99.90;;;;;;5137699;27;20042;-69
2022/11/24 03:25:36;;;;;;;31.40;6.22;;;9.30;99.90;;;;;;5137780;27;20055;-69
2022/11/24 03:28:02;;;;;;;25.23;6.40;;;9.30;99.90;;;;;;5137675;27;20045;-69
2022/11/24 03:30:28;;;;;;;20.88;5.53;;;9.30;99.90;;;;;;5137829;27;20118;-69
2022/11/24 03:32:53;;;;;;;28.38;6.03;;;9.30;99.90;;;;;;5137438;27;20131;-70
2022/11/24 03:35:22;;;;;;;25.73;5.93;;;9.10;99.90;;;;;;5136766;27;20107;-69
2022/11/24 03:37:48;;;;;;;23.70;5.72;;;9.00;99.90;;;;;;5137468;27;20039;-69
2022/11/24 03:40:13;;;;;;;33.10;7.38;;;9.10;99.90;;;;;;5137766;27;20037;-69
2022/11/24 03:42:39;;;;;;;27.25;6.38;;;9.10;99.90;;;;;;5137505;27;20339;-69
2022/11/24 03:45:06;;;;;;;30.75;6.93;;;9.20;99.90;;;;;;5137701;27;20035;-69
2022/11/24 03:47:31;;;;;;;31.05;6.40;;;9.10;99.90;;;;;;5119345;27;20038;-70
2022/11/24 03:49:57;;;;;;;21.42;6.32;;;9.10;99.90;;;;;;5137611;27;20035;-70
2022/11/24 03:52:25;;;;;;;29.58;6.03;;;9.00;99.90;;;;;;5119438;27;20039;-69
2022/11/24 03:54:52;;;;;;;28.40;6.75;;;9.00;99.90;;;;;;5137722;27;20035;-69
2022/11/24 03:57:17;;;;;;;33.33;6.20;;;9.10;99.90;;;;;;5137629;28;20043;-70
2022/11/24 03:59:43;;;;;;;25.95;6.20;;;9.10;99.90;;;;;;5137432;28;20054;-70
2022/11/24 04:02:09;;;;;;;29.95;6.32;;;9.10;99.90;;;;;;5137671;28;20335;-70
2022/11/24 04:04:34;;;;;;;26.08;6.00;;;9.10;99.90;;;;;;5137429;28;20425;-69
2022/11/24 04:07:00;;;;;;;26.23;6.05;;;9.20;99.90;;;;;;5119106;28;20035;-70
2022/11/24 04:09:26;;;;;;;19.52;4.82;;;9.20;99.90;;;;;;5137470;28;20110;-69
2022/11/24 04:14:35;;;;;;;28.77;5.05;;;9.40;99.90;;;;;;5119037;28;20485;-70
2022/11/24 04:17:03;;;;;;;18.55;4.88;;;9.30;99.90;;;;;;5137519;28;20039;-69
2022/11/24 04:19:28;;;;;;;18.58;5.88;;;9.30;99.90;;;;;;5137583;28;20058;-69
2022/11/24 04:21:54;;;;;;;17.90;4.82;;;9.30;99.90;;;;;;5137228;28;20450;-69
2022/11/24 04:24:20;;;;;;;22.52;4.55;;;9.20;99.90;;;;;;5119503;28;20332;-69
2022/11/24 04:26:45;;;;;;;17.42;4.95;;;9.20;99.90;;;;;;5118900;28;20448;-69
2022/11/24 04:29:11;;;;;;;26.00;5.10;;;9.20;99.90;;;;;;5119009;28;20416;-70
2022/11/24 04:31:37;;;;;;;26.15;5.15;;;9.10;99.90;;;;;;5137327;28;20039;-70
2022/11/24 04:34:02;;;;;;;30.13;5.93;;;9.20;99.90;;;;;;5137046;28;20035;-70
2022/11/24 04:36:28;;;;;;;25.60;5.38;;;9.20;99.90;;;;;;5137077;28;20043;-70
2022/11/24 04:38:53;;;;;;;25.15;5.35;;;9.20;99.90;;;;;;5137255;28;20044;-70
2022/11/24 04:41:19;;;;;;;27.27;5.20;;;9.20;99.90;;;;;;5137072;28;20092;-69
2022/11/24 04:43:49;;;;;;;25.50;5.22;;;9.20;99.90;;;;;;5118790;28;20335;-69
2022/11/24 04:46:14;;;;;;;28.40;4.38;;;9.20;99.90;;;;;;5119150;28;20115;-70
2022/11/24 04:48:40;;;;;;;29.52;5.03;;;9.30;99.90;;;;;;5140323;27;20119;-69
2022/11/24 04:51:06;;;;;;;23.92;4.97;;;9.20;99.90;;;;;;5105772;27;20043;-69
2022/11/24 04:53:32;;;;;;;23.15;4.47;;;9.10;99.90;;;;;;5140836;27;20050;-69
2022/11/24 04:55:58;;;;;;;29.27;5.60;;;9.20;99.90;;;;;;5140884;27;20039;-69
2022/11/24 04:58:23;;;;;;;18.90;3.90;;;9.20;99.90;;;;;;5122800;27;20327;-69
2022/11/24 05:00:49;;;;;;;18.17;4.45;;;9.20;99.90;;;;;;5122494;27;20047;-70
2022/11/24 05:03:14;;;;;;;21.38;5.07;;;9.20;99.90;;;;;;5140828;27;20046;-70
2022/11/24 05:05:40;;;;;;;22.08;4.60;;;9.20;99.90;;;;;;5140436;27;20430;-69
2022/11/24 05:08:06;;;;;;;19.65;4.68;;;9.10;99.90;;;;;;5140823;27;20430;-69
2022/11/24 05:10:34;;;;;;;22.02;5.00;;;9.10;99.90;;;;;;5140480;27;20449;-69
2022/11/24 05:13:01;;;;;;;21.17;4.63;;;9.10;99.90;;;;;;5140489;27;20047;-70
2022/11/24 05:15:28;;;;;;;15.63;3.50;;;9.00;99.90;;;;;;5140528;27;20054;-70
2022/11/24 05:17:54;;;;;;;25.70;4.85;;;8.90;99.90;;;;;;5140440;27;20035;-70
2022/11/24 05:20:20;;;;;;;18.85;4.13;;;9.00;99.90;;;;;;5122556;27;20326;-69
2022/11/24 05:22:46;;;;;;;24.38;4.07;;;9.00;99.90;;;;;;5140207;27;20118;-69
2022/11/24 05:25:13;;;;;;;25.83;4.97;;;8.90;99.90;;;;;;5140173;27;20059;-69
2022/11/24 05:27:39;;;;;;;27.92;4.30;;;8.90;99.90;;;;;;5140082;27;20040;-70
2022/11/24 05:30:05;;;;;;;18.25;4.18;;;8.90;99.90;;;;;;5140636;27;20454;-69
2022/11/24 05:32:31;;;;;;;20.05;4.07;;;8.80;99.90;;;;;;5121839;27;20077;-69
2022/11/24 05:34:57;;;;;;;22.08;4.95;;;8.70;99.90;;;;;;5139858;27;20124;-70
2022/11/24 05:37:24;;;;;;;23.60;4.80;;;8.70;99.90;;;;;;5139971;27;20098;-69
2022/11/24 05:39:50;;;;;;;22.42;5.03;;;8.50;99.90;;;;;;5140089;27;20114;-69
2022/11/24 05:44:59;;;;;;;20.40;4.40;;;8.50;99.90;;;;;;5139955;27;20335;-69
2022/11/24 05:47:25;;;;;;;21.55;4.47;;;8.60;99.90;;;;;;5140012;27;20043;-69
2022/11/24 05:49:51;;;;;;;17.45;3.83;;;8.50;99.90;;;;;;5139644;27;20046;-69
2022/11/24 05:52:16;;;;;;;20.23;4.25;;;8.60;99.90;;;;;;5139556;27;20035;-69
2022/11/24 05:54:42;;;;;;;23.90;5.80;;;8.70;99.90;;;;;;5140029;27;20114;-70
2022/11/24 05:57:08;;;;;;;18.15;4.68;;;8.60;99.90;;;;;;5139512;27;20047;-69
2022/11/24 05:59:34;;;;;;;15.57;4.10;;;8.50;99.90;;;;;;5138815;27;20043;-70
2022/11/24 06:02:00;;;;;;;25.98;4.30;;;8.60;99.90;;;;;;5139491;27;20039;-69
2022/11/24 06:04:26;;;;;;;21.02;4.05;;;8.60;99.90;;;;;;5139453;27;20063;-69
2022/11/24 06:06:51;;;;;;;22.25;4.88;;;8.60;99.90;;;;;;5138955;27;20092;-69
2022/11/24 06:09:17;;;;;;;20.60;4.47;;;8.50;99.90;;;;;;5139530;27;20046;-69
2022/11/24 06:11:42;;;;;;;22.38;4.03;;;8.50;99.90;;;;;;5139433;27;20049;-69
2022/11/24 06:14:09;;;;;;;23.17;4.38;;;8.50;99.90;;;;;;5121194;27;20115;-70
2022/11/24 06:16:35;;;;;;;21.27;4.65;;;8.60;99.90;;;;;;5139626;27;20053;-69
2022/11/24 06:19:01;;;;;;;13.43;3.60;;;8.60;99.90;;;;;;5139461;27;20421;-69
2022/11/24 06:21:27;;;;;;;16.33;3.80;;;8.60;99.90;;;;;;5120815;27;20095;-70
2022/11/24 06:23:52;;;;;;;18.05;4.38;;;8.60;99.90;;;;;;5138890;27;20038;-70
2022/11/24 06:26:18;;;;;;;20.33;3.92;;;8.70;99.90;;;;;;5120700;27;20055;-69
2022/11/24 06:28:44;;;;;;;17.95;4.47;;;8.50;99.90;;;;;;5139000;27;20040;-69
2022/11/24 06:31:10;;;;;;;20.80;4.63;;;8.70;99.90;;;;;;5139172;27;20039;-70
2022/11/24 06:33:37;;;;;;;25.38;5.18;;;8.80;99.90;;;;;;5138878;27;20127;-69
2022/11/24 06:36:05;;;;;;;17.23;4.15;;;8.70;99.90;;;;;;5138440;27;20334;-69
2022/11/24 06:38:31;;;;;;;16.25;4.68;;;8.60;99.90;;;;;;5120789;27;20180;-70
2022/11/24 06:41:06;;;;;;;16.88;4.40;;;8.70;99.90;;;;;;5138801;27;20140;-70
2022/11/24 06:43:33;;;;;;;14.82;3.80;;;8.80;99.90;;;;;;5138817;27;20176;-69
2022/11/24 06:45:58;;;;;;;17.50;4.00;;;8.70;99.90;;;;;;5120375;27;20042;-70
2022/11/24 06:48:25;;;;;;;19.05;4.30;;;8.80;99.90;;;;;;5138753;27;20039;-69
2022/11/24 06:50:52;;;;;;;17.55;3.70;;;8.80;99.90;;;;;;5138812;27;20071;-70
2022/11/24 06:53:18;;;;;;;21.25;4.32;;;8.60;99.90;;;;;;5120266;27;20043;-69
2022/11/24 06:55:45;;;;;;;22.95;4.32;;;8.70;99.90;;;;;;5138641;27;20031;-69
2022/11/24 06:58:14;;;;;;;21.70;4.20;;;8.70;99.90;;;;;;5120961;27;20103;-69
2022/11/24 07:00:40;;;;;;;18.33;4.28;;;8.70;99.90;;;;;;5138399;27;20039;-69
2022/11/24 07:03:06;;;;;;;22.98;4.28;;;8.70;99.90;;;;;;5138197;27;20043;-69
2022/11/24 07:05:31;;;;;;;21.10;4.75;;;8.70;99.90;;;;;;5137844;27;20035;-69
2022/11/24 07:08:00;;;;;;;19.58;4.20;;;8.80;99.90;;;;;;5138136;27;20411;-69
2022/11/24 07:10:25;;;;;;;20.70;5.15;;;8.80;99.90;;;;;;5138285;27;20039;-70
2022/11/24 07:12:51;;;;;;;23.92;5.25;;;8.80;99.90;;;;;;5138099;27;20119;-69
2022/11/24 07:15:17;;;;;;;24.20;4.38;;;8.90;99.90;;;;;;5138042;27;20096;-70
2022/11/24 07:17:42;;;;;;;22.95;4.28;;;8.90;99.90;;;;;;5138066;27;20035;-69
2022/11/24 07:20:08;;;;;;;26.20;5.07;;;9.00;99.90;;;;;;5137817;27;20074;-70
2022/11/24 07:22:34;;;;;;;21.33;4.53;;;9.00;99.90;;;;;;5137831;27;20346;-69
2022/11/24 07:25:00;;;;;;;17.20;4.38;;;8.90;99.90;;;;;;5102727;27;20046;-70
2022/11/24 07:27:27;;;;;;;18.90;4.65;;;8.90;99.90;;;;;;5137670;27;20054;-69
2022/11/24 07:29:52;;;;;;;17.67;4.25;;;8.90;99.90;;;;;;5120035;27;20054;-69
2022/11/24 07:32:18;;;;;;;18.05;4.40;;;8.80;99.90;;;;;;5144625;27;20031;-70
2022/11/24 07:34:44;;;;;;;14.98;3.95;;;8.80;99.90;;;;;;5146641;27;20449;-69
2022/11/24 07:37:09;;;;;;;18.60;4.80;;;8.80;99.90;;;;;;5148588;27;20099;-70
2022/11/24 07:39:35;;;;;;;17.27;4.40;;;8.80;99.90;;;;;;5147442;27;20518;-69
2022/11/24 07:42:00;;;;;;;24.40;4.75;;;8.60;99.90;;;;;;5147189;27;20072;-69
2022/11/24 07:44:26;;;;;;;19.67;4.93;;;8.70;99.90;;;;;;5139109;27;20065;-69
2022/11/24 07:46:52;;;;;;;15.55;5.00;;;8.70;99.90;;;;;;5119685;28;20420;-69
2022/11/24 07:49:18;;;;;;;21.83;5.10;;;8.70;99.90;;;;;;5137774;27;20382;-67
2022/11/24 07:51:44;;;;;;;22.83;4.95;;;8.70;99.90;;;;;;5119587;27;20417;-68
2022/11/24 07:54:10;;;;;;;20.33;4.93;;;8.80;99.90;;;;;;5102284;28;20049;-69
2022/11/24 07:56:35;;;;;;;18.20;4.45;;;8.80;99.90;;;;;;5137746;27;20085;-68
2022/11/24 07:59:01;;;;;;;25.50;5.00;;;8.90;99.90;;;;;;5137568;28;20040;-67
2022/11/24 08:01:27;;;;;;;22.45;4.80;;;8.80;99.90;;;;;;5137576;28;20045;-67
2022/11/24 08:03:53;;;;;;;24.23;5.25;;;8.80;99.90;;;;;;5119262;28;20354;-68
2022/11/24 08:06:18;;;;;;;22.40;5.22;;;8.80;99.90;;;;;;5118871;28;20043;-68
2022/11/24 08:08:45;;;;;;;19.77;4.97;;;8.80;99.90;;;;;;5119356;28;20062;-67
2022/11/24 08:11:13;;;;;;;21.67;5.00;;;8.70;99.90;;;;;;5137387;28;20076;-67
2022/11/24 08:13:39;;;;;;;20.92;5.53;;;8.70;99.90;;;;;;5137187;28;20042;-67
2022/11/24 08:16:10;;;;;;;21.90;5.75;;;8.80;99.90;;;;;;5137223;28;20215;-67
2022/11/24 08:18:37;;;;;;;16.13;4.75;;;9.00;99.90;;;;;;5137197;28;20039;-67
2022/11/24 08:21:03;;;;;;;24.23;5.55;;;8.90;99.90;;;;;;5119080;28;20416;-67
2022/11/24 08:23:29;;;;;;;19.77;5.47;;;9.00;99.90;;;;;;5140393;27;20446;-67
2022/11/24 08:25:56;;;;;;;22.83;5.80;;;9.10;99.90;;;;;;5141151;27;20058;-68
2022/11/24 08:28:22;;;;;;;21.88;6.78;;;9.10;99.90;;;;;;5141559;27;20035;-67
2022/11/24 08:30:48;;;;;;;23.98;6.35;;;9.20;99.90;;;;;;5123053;27;20039;-67
2022/11/24 08:33:14;;;;;;;22.17;5.93;;;9.30;99.90;;;;;;5106093;27;20046;-68
2022/11/24 08:35:40;;;;;;;18.52;5.82;;;9.10;99.90;;;;;;5140950;27;20075;-67
2022/11/24 08:38:05;;;;;;;31.90;6.43;;;9.10;99.90;;;;;;5141171;27;20088;-66
2022/11/24 08:40:32;;;;;;;22.65;5.93;;;9.20;99.90;;;;;;5123105;27;20043;-68
2022/11/24 08:42:59;;;;;;;22.35;5.90;;;9.20;99.90;;;;;;5141024;27;20385;-67
2022/11/24 08:45:25;;;;;;;19.63;6.03;;;9.30;99.90;;;;;;5106102;27;20442;-68
2022/11/24 08:47:55;;;;;;;24.98;6.88;;;9.20;99.90;;;;;;5122959;27;20327;-67
2022/11/24 08:50:22;;;;;;;19.95;6.88;;;9.40;99.90;;;;;;5141143;27;20071;-67
2022/11/24 08:52:50;;;;;;;19.70;6.68;;;9.30;99.90;;;;;;5122689;27;20043;-67
2022/11/24 08:55:15;;;;;;;20.67;6.93;;;9.40;99.90;;;;;;5122575;27;20114;-67
2022/11/24 08:57:41;;;;;;;15.20;5.38;;;9.50;99.90;;;;;;5140923;27;20118;-76
2022/11/24 09:00:10;;;;;;;19.20;6.25;;;9.60;99.90;;;;;;5106383;27;20112;-68
2022/11/24 09:02:36;;;;;;;27.23;7.05;;;9.60;99.90;;;;;;5140608;27;20103;-69
2022/11/24 09:05:02;;;;;;;20.70;7.28;;;9.60;99.90;;;;;;5122709;27;20027;-69
2022/11/24 09:07:27;;;;;;;26.30;7.25;;;9.70;99.90;;;;;;5121958;27;20095;-68
2022/11/24 09:09:53;;;;;;;17.55;6.60;;;9.80;99.90;;;;;;5140509;27;20046;-67
2022/11/24 09:12:19;;;;;;;19.45;7.28;;;9.90;99.90;;;;;;5140572;27;20042;-67
2022/11/24 09:14:44;;;;;;;19.33;7.20;;;10.00;99.90;;;;;;5140282;27;20122;-67
2022/11/24 09:17:13;;;;;;;17.17;7.18;;;10.00;99.90;;;;;;5140626;27;20050;-68
2022/11/24 09:19:39;;;;;;;22.60;6.75;;;10.20;99.90;;;;;;5140473;27;20035;-67
2022/11/24 09:22:04;;;;;;;23.58;7.78;;;10.30;99.90;;;;;;5140384;27;20043;-67
2022/11/24 09:24:30;;;;;;;22.55;6.55;;;10.40;99.90;;;;;;5140467;27;20050;-67
2022/11/24 09:26:55;;;;;;;19.25;6.55;;;10.30;99.90;;;;;;5140129;27;20053;-67
2022/11/24 09:29:21;;;;;;;20.45;6.70;;;10.40;99.90;;;;;;5139889;27;20347;-68
2022/11/24 09:31:47;;;;;;;23.83;6.75;;;10.40;99.90;;;;;;5139926;27;20074;-67
2022/11/24 09:34:14;;;;;;;21.10;6.78;;;10.50;99.90;;;;;;5086780;27;20074;-67
2022/11/24 09:36:40;;;;;;;14.25;6.07;;;10.50;99.90;;;;;;5121672;27;20427;-67
2022/11/24 09:39:06;;;;;;;18.45;6.18;;;10.50;99.90;;;;;;5140172;27;20107;-68
2022/11/24 09:41:37;;;;;;;22.83;6.15;;;10.50;99.90;;;;;;5121663;27;20412;-67
2022/11/24 09:44:14;;;;;;;17.85;6.35;;;10.60;99.90;;;;;;5139731;27;20038;-67
2022/11/24 09:46:58;;;;;;;21.25;6.75;;;10.50;99.90;;;;;;5140073;27;20039;-67
2022/11/24 09:49:34;;;;;;;15.32;6.25;;;10.60;99.90;;;;;;5104463;27;20039;-67
2022/11/24 09:52:07;;;;;;;21.35;6.20;;;10.80;99.90;;;;;;5139992;27;20067;-67
2022/11/24 09:54:34;;;;;;;15.05;6.18;;;10.60;99.90;;;;;;5139564;27;20439;-68
2022/11/24 09:57:02;;;;;;;18.50;6.43;;;10.70;99.90;;;;;;5121655;27;20039;-68
2022/11/24 09:59:28;;;;;;;13.25;4.82;;;10.70;99.90;;;;;;5139796;27;20043;-68
2022/11/24 10:01:55;;;;;;;16.05;5.03;;;10.70;99.90;;;;;;5121057;27;20096;-67
2022/11/24 10:04:23;;;;;;;12.20;5.13;;;10.70;99.90;;;;;;5139454;27;20393;-67
2022/11/24 10:07:04;;;;;;;14.73;4.43;;;10.80;99.90;;;;;;5139000;27;20036;-67
2022/11/24 10:09:39;;;;;;;12.50;4.55;;;10.90;99.90;;;;;;5139445;27;20332;-68
2022/11/24 10:12:23;;;;;;;14.55;4.85;;;11.10;99.90;;;;;;5139408;27;20071;-67
2022/11/24 10:15:27;;;;;;;7.22;3.83;;;11.10;99.90;;;;;;5120939;27;20095;-66
2022/11/24 10:18:21;;;;;;;10.23;3.70;;;10.80;99.90;;;;;;5139445;27;20073;-67
2022/11/24 10:21:06;;;;;;;11.68;3.90;;;10.90;99.90;;;;;;5139354;27;20043;-67
2022/11/24 10:24:02;;;;;;;8.30;3.55;;;11.00;99.90;;;;;;5112570;27;20101;-68
2022/11/24 10:26:36;;;;;;;9.40;3.63;;;11.20;99.90;;;;;;5129224;27;20087;-67
2022/11/24 10:29:30;;;;;;;9.85;3.80;;;11.10;99.90;;;;;;5138891;27;20485;-67
2022/11/24 10:31:56;;;;;;;12.50;3.90;;;11.20;99.90;;;;;;5121230;27;20031;-67
2022/11/24 10:34:38;;;;;;;10.85;3.55;;;11.50;99.90;;;;;;5135587;27;20126;-67
2022/11/24 10:37:10;;;;;;;7.95;3.58;;;11.60;99.90;;;;;;5112740;28;20063;-67
2022/11/24 10:39:46;;;;;;;10.73;3.80;;;11.70;99.90;;;;;;5117470;28;20403;-66
2022/11/24 10:42:39;;;;;;;;;;;11.80;99.90;;;;;;5117660;28;20044;-67
2022/11/24 10:45:16;;;;;;;7.90;3.00;;;11.60;99.90;;;;;;5114676;28;19919;-67
2022/11/24 10:47:43;;;;;;;9.18;3.28;;;11.50;99.90;;;;;;5118098;28;20039;-67
2022/11/24 10:50:31;;;;;;;11.50;3.38;;;11.50;99.90;;;;;;5083290;28;20069;-67
2022/11/24 10:53:15;;;;;;;8.48;3.45;;;11.50;99.90;;;;;;5117856;28;20432;-67
2022/11/24 10:55:56;;;;;;;11.18;3.13;;;11.70;99.90;;;;;;5118012;28;20118;-67
2022/11/24 10:58:34;;;;;;;10.23;3.08;;;11.60;99.90;;;;;;5117931;28;20085;-67
2022/11/24 11:01:17;;;;;;;7.47;3.40;;;11.50;99.90;;;;;;5117971;28;20039;-67
2022/11/24 11:03:55;;;;;;;11.10;3.22;;;11.20;99.90;;;;;;5099901;28;20035;-67
2022/11/24 11:06:22;;;;;;;8.63;3.33;;;11.20;99.90;;;;;;5099225;28;20036;-67
2022/11/24 11:08:48;;;;;;;11.05;4.30;;;11.40;99.90;;;;;;5117709;28;20039;-68
2022/11/24 11:11:18;;;;;;;7.13;3.45;;;11.50;99.90;;;;;;5099810;28;20327;-67
2022/11/24 11:14:02;;;;;;;7.95;3.85;;;11.70;99.90;;;;;;5117508;28;20312;-67
2022/11/24 11:16:51;;;;;;;10.80;3.42;;;11.80;99.90;;;;;;5117566;28;20047;-67
2022/11/24 11:19:35;;;;;;;8.40;3.25;;;11.90;99.90;;;;;;5117515;28;20112;-67
2022/11/24 11:22:17;;;;;;;13.30;3.28;;;12.30;99.90;;;;;;5099673;28;20040;-67
2022/11/24 11:24:45;;;;;;;10.75;3.05;;;12.40;99.90;;;;;;5099780;28;20054;-67
2022/11/24 11:27:25;;;;;;;12.40;3.97;;;12.60;99.90;;;;;;5117242;28;20435;-67
2022/11/24 11:29:51;;;;;;;17.05;4.13;;;12.90;99.90;;;;;;5099349;28;20048;-67
2022/11/24 11:32:26;;;;;;;7.30;3.03;;;13.10;99.90;;;;;;5099418;28;20048;-67
2022/11/24 11:34:55;;;;;;;11.52;3.20;;;13.40;99.90;;;;;;5117501;28;20046;-68
2022/11/24 11:37:24;;;;;;;9.23;3.47;;;13.70;99.90;;;;;;5116694;28;20039;-67
2022/11/24 11:39:55;;;;;;;10.25;3.40;;;13.60;99.90;;;;;;5117279;28;20316;-68
2022/11/24 11:42:40;;;;;;;11.15;4.18;;;14.00;99.90;;;;;;5116934;28;20499;-67
2022/11/24 11:45:10;;;;;;;6.90;3.22;;;14.20;99.90;;;;;;5117094;28;20039;-68
2022/11/24 11:47:35;;;;;;;9.95;3.70;;;13.80;99.90;;;;;;5099077;28;20049;-68
2022/11/24 11:50:08;;;;;;;7.15;3.20;;;13.90;99.90;;;;;;5117141;28;20072;-69
2022/11/24 11:52:59;;;;;;;6.95;2.85;;;14.00;99.90;;;;;;5117302;28;20047;-68
2022/11/24 11:55:34;;;;;;;8.63;2.88;;;14.50;99.90;;;;;;5116982;28;20076;-68
2022/11/24 11:58:29;;;;;;;7.30;3.20;;;15.10;99.60;;;;;;5116360;28;20051;-69
2022/11/24 12:01:14;;;;;;;12.45;3.75;;;15.30;99.10;;;;;;5117008;28;20054;-68
2022/11/24 12:03:55;;;;;;;8.40;3.28;;;14.90;99.10;;;;;;5116827;28;20036;-69
2022/11/24 12:06:40;;;;;;;10.32;3.58;;;15.00;99.30;;;;;;5116743;28;20100;-68
2022/11/24 12:09:31;;;;;;;8.98;3.22;;;15.20;99.00;;;;;;5133021;28;20419;-70
2022/11/24 12:11:59;;;;;;;6.10;2.15;;;15.40;98.80;;;;;;5098871;28;20050;-67
2022/11/24 12:14:36;;;;;;;7.80;2.75;;;15.70;98.90;;;;;;5116577;28;20432;-69
2022/11/24 12:17:23;;;;;;;8.57;2.75;;;16.00;98.90;;;;;;5098726;28;20047;-70
2022/11/24 12:20:17;;;;;;;9.77;2.65;;;16.50;98.40;;;;;;5117021;28;20100;-69
2022/11/24 12:23:17;;;;;;;12.90;2.40;;;16.70;98.20;;;;;;5082016;28;20051;-69
2022/11/24 12:25:58;;;;;;;8.82;2.60;;;17.10;98.20;;;;;;5116787;28;20199;-69
2022/11/24 12:28:41;;;;;;;8.95;2.20;;;17.20;97.90;;;;;;5099008;28;20123;-69
2022/11/24 12:31:10;;;;;;;7.05;2.45;;;17.50;97.90;;;;;;5099004;28;20331;-69
2022/11/24 12:33:59;;;;;;;7.95;2.88;;;18.00;97.30;;;;;;5116829;28;20040;-69
2022/11/24 12:36:42;;;;;;;11.98;2.85;;;18.10;97.10;;;;;;5116292;28;20054;-69
2022/11/24 12:39:17;;;;;;;10.65;3.08;;;18.40;97.10;;;;;;5132724;28;20043;-70
2022/11/24 12:41:55;;;;;;;7.13;2.20;;;18.70;96.70;;;;;;5098561;28;20043;-69
2022/11/24 12:44:46;;;;;;;5.80;1.70;;;19.00;96.10;;;;;;5116540;28;20036;-69
2022/11/24 12:47:39;;;;;;;8.15;1.85;;;19.00;96.30;;;;;;5116746;28;20413;-69
2022/11/24 12:50:18;;;;;;;11.80;2.25;;;19.10;96.00;;;;;;5084318;28;20035;-69
2022/11/24 12:52:50;;;;;;;7.35;1.48;;;19.40;95.90;;;;;;5098736;28;20039;-70
2022/11/24 12:55:21;;;;;;;8.65;1.38;;;19.50;95.30;;;;;;5098452;28;20055;-69
2022/11/24 12:58:03;;;;;;;9.82;1.75;;;19.40;95.70;;;;;;5098300;28;20048;-69
2022/11/24 13:00:34;;;;;;;6.15;1.83;;;20.00;95.60;;;;;;5081398;28;20126;-70
2022/11/24 13:03:17;;;;;;;7.53;1.52;;;20.10;95.10;;;;;;5116235;28;20420;-69
2022/11/24 13:05:49;;;;;;;7.43;1.70;;;20.50;95.00;;;;;;5115898;28;20032;-69